Time,TemperatureF,DewpointF,PressureIn,WindDirection,WindDirectionDegrees,WindSpeedMPH,WindSpeedGustMPH,Humidity,HourlyPrecipIn,Conditions,Clouds,dailyrainin,SoftwareType,DateUTC
2013-01-08 02:52:00,40.0,24.0,-100.00,SSW,195,12.0,23.0,53,-99.99,,,0.00,,2013-01-08 09:52:00,
2013-01-08 03:02:00,40.0,24.0,-100.00,SSW,195,12.0,23.0,53,-99.99,,,0.00,,2013-01-08 10:02:00,
2013-01-08 03:12:00,40.0,24.0,-100.00,South,185,11.0,16.0,52,-99.99,,,0.00,,2013-01-08 10:12:00,
2013-01-08 03:22:00,40.0,24.0,-100.00,South,185,11.0,16.0,52,-99.99,,,0.00,,2013-01-08 10:22:00,
2013-01-08 03:32:00,40.0,24.0,-100.00,South,180,16.0,21.0,52,-99.99,,,0.00,,2013-01-08 10:32:00,
2013-01-08 03:42:00,40.0,24.0,-100.00,South,180,16.0,21.0,52,-99.99,,,0.00,,2013-01-08 10:42:00,
2013-01-08 03:52:00,39.0,23.0,-100.00,South,190,14.0,16.0,52,-99.99,,,0.00,,2013-01-08 10:52:00,
2013-01-08 04:02:00,39.0,23.0,-100.00,South,190,14.0,16.0,52,-99.99,,,0.00,,2013-01-08 11:02:00,
2013-01-08 04:12:00,39.0,23.0,-100.00,South,180,10.0,14.0,51,-99.99,,,0.00,,2013-01-08 11:12:00,
2013-01-08 04:22:00,39.0,23.0,-100.00,South,180,10.0,14.0,51,-99.99,,,0.00,,2013-01-08 11:22:00,
2013-01-08 04:32:00,39.0,22.0,-100.00,South,190,21.0,24.0,51,-99.99,,,0.00,,2013-01-08 11:32:00,
2013-01-08 04:42:00,39.0,22.0,-100.00,South,190,21.0,24.0,51,-99.99,,,0.00,,2013-01-08 11:42:00,
2013-01-08 04:53:00,39.0,22.0,-100.00,South,185,19.0,25.0,51,-99.99,,,0.00,,2013-01-08 11:53:00,
2013-01-08 05:02:00,39.0,22.0,-100.00,South,185,19.0,25.0,51,-99.99,,,0.00,,2013-01-08 12:02:00,
2013-01-08 05:12:00,38.0,22.0,-100.00,South,185,14.0,22.0,52,-99.99,,,0.00,,2013-01-08 12:12:00,
2013-01-08 05:22:00,38.0,22.0,-100.00,South,185,14.0,22.0,52,-99.99,,,0.00,,2013-01-08 12:22:00,
2013-01-08 05:32:00,38.0,23.0,-100.00,SSW,200,17.0,23.0,54,-99.99,,,0.00,,2013-01-08 12:32:00,
2013-01-08 05:42:00,38.0,23.0,-100.00,SSW,200,17.0,23.0,54,-99.99,,,0.00,,2013-01-08 12:42:00,
2013-01-08 05:53:00,38.0,23.0,-100.00,South,185,17.0,22.0,54,-99.99,,,0.00,,2013-01-08 12:53:00,
2013-01-08 06:02:00,38.0,23.0,-100.00,South,185,17.0,22.0,54,-99.99,,,0.00,,2013-01-08 13:02:00,
2013-01-08 06:12:00,38.0,22.0,-100.00,South,185,26.0,31.0,52,-99.99,,,0.00,,2013-01-08 13:12:00,
2013-01-08 06:22:00,38.0,22.0,-100.00,South,185,26.0,31.0,52,-99.99,,,0.00,,2013-01-08 13:22:00,
2013-01-08 06:32:00,38.0,21.0,-100.00,South,190,21.0,25.0,51,-99.99,,,0.00,,2013-01-08 13:32:00,
2013-01-08 06:42:00,38.0,21.0,-100.00,South,190,21.0,25.0,51,-99.99,,,0.00,,2013-01-08 13:42:00,
2013-01-08 06:52:00,38.0,21.0,-100.00,South,185,19.0,25.0,51,-99.99,,,0.00,,2013-01-08 13:52:00,
2013-01-08 07:02:00,38.0,21.0,-100.00,South,185,19.0,25.0,51,-99.99,,,0.00,,2013-01-08 14:02:00,
2013-01-08 07:12:00,38.0,21.0,-100.00,South,180,21.0,27.0,51,-99.99,,,0.00,,2013-01-08 14:12:00,
2013-01-08 07:23:00,38.0,21.0,-100.00,South,180,21.0,27.0,51,-99.99,,,0.00,,2013-01-08 14:23:00,
2013-01-08 07:33:00,38.0,21.0,-100.00,South,180,13.0,17.0,51,-99.99,,,0.00,,2013-01-08 14:33:00,
2013-01-08 07:42:00,38.0,21.0,-100.00,South,180,13.0,17.0,51,-99.99,,,0.00,,2013-01-08 14:42:00,
2013-01-08 07:53:00,38.0,21.0,-100.00,South,190,9.0,15.0,51,-99.99,,,0.00,,2013-01-08 14:53:00,
2013-01-08 08:02:00,38.0,21.0,-100.00,South,190,9.0,15.0,51,-99.99,,,0.00,,2013-01-08 15:02:00,
2013-01-08 08:12:00,38.0,20.0,-100.00,South,180,15.0,17.0,49,-99.99,,,0.00,,2013-01-08 15:12:00,
2013-01-08 08:22:00,38.0,20.0,-100.00,South,180,15.0,17.0,49,-99.99,,,0.00,,2013-01-08 15:22:00,
2013-01-08 08:33:00,38.0,19.0,-100.00,South,190,18.0,22.0,47,-99.99,,,0.00,,2013-01-08 15:33:00,
2013-01-08 08:42:00,38.0,19.0,-100.00,South,190,18.0,22.0,47,-99.99,,,0.00,,2013-01-08 15:42:00,
2013-01-08 08:52:00,38.0,19.0,-100.00,SSW,195,11.0,13.0,46,-99.99,,,0.00,,2013-01-08 15:52:00,
2013-01-08 09:02:00,38.0,19.0,-100.00,SSW,195,11.0,13.0,46,-99.99,,,0.00,,2013-01-08 16:02:00,
2013-01-08 09:12:00,37.0,18.0,-100.00,SSW,195,12.0,13.0,45,-99.99,,,0.00,,2013-01-08 16:12:00,
2013-01-08 09:22:00,37.0,18.0,-100.00,SSW,195,12.0,13.0,45,-99.99,,,0.00,,2013-01-08 16:22:00,
2013-01-08 09:33:00,38.0,18.0,-100.00,South,190,13.0,15.0,45,-99.99,,,0.00,,2013-01-08 16:33:00,
2013-01-08 09:42:00,38.0,18.0,-100.00,South,190,13.0,15.0,45,-99.99,,,0.00,,2013-01-08 16:42:00,
2013-01-08 09:52:00,38.0,18.0,-100.00,SW,215,11.0,13.0,45,-99.99,,,0.00,,2013-01-08 16:52:00,
2013-01-08 10:02:00,38.0,18.0,-100.00,SW,215,11.0,13.0,45,-99.99,,,0.00,,2013-01-08 17:02:00,
2013-01-08 10:12:00,38.0,18.0,-100.00,SSW,200,9.0,11.0,44,-99.99,,,0.00,,2013-01-08 17:12:00,
2013-01-08 10:23:00,38.0,18.0,-100.00,SSW,200,9.0,11.0,44,-99.99,,,0.00,,2013-01-08 17:23:00,
2013-01-08 10:33:00,38.0,18.0,-100.00,South,190,12.0,14.0,44,-99.99,,,0.00,,2013-01-08 17:33:00,
2013-01-08 10:42:00,38.0,18.0,-100.00,South,190,12.0,14.0,44,-99.99,,,0.00,,2013-01-08 17:42:00,
2013-01-08 10:53:00,38.0,18.0,-100.00,South,190,11.0,13.0,43,-99.99,,,0.00,,2013-01-08 17:53:00,
2013-01-08 11:03:00,38.0,18.0,-100.00,South,190,11.0,13.0,43,-99.99,,,0.00,,2013-01-08 18:03:00,
2013-01-08 11:12:00,38.0,18.0,-100.00,SSW,200,11.0,14.0,44,-99.99,,,0.00,,2013-01-08 18:12:00,
2013-01-08 11:23:00,38.0,18.0,-100.00,SSW,200,11.0,14.0,44,-99.99,,,0.00,,2013-01-08 18:23:00,
2013-01-08 11:33:00,38.0,18.0,-100.00,SSW,195,14.0,19.0,45,-99.99,,,0.00,,2013-01-08 18:33:00,
2013-01-08 11:43:00,38.0,18.0,-100.00,SSW,195,14.0,19.0,45,-99.99,,,0.00,,2013-01-08 18:43:00,
2013-01-08 11:53:00,38.0,18.0,-100.00,South,185,19.0,22.0,45,-99.99,,,0.00,,2013-01-08 18:53:00,
2013-01-08 12:02:00,38.0,18.0,-100.00,South,185,19.0,22.0,45,-99.99,,,0.00,,2013-01-08 19:02:00,
2013-01-08 12:12:00,38.0,18.0,-100.00,South,185,15.0,17.0,45,-99.99,,,0.00,,2013-01-08 19:12:00,
2013-01-08 12:22:00,38.0,18.0,-100.00,South,185,15.0,17.0,45,-99.99,,,0.00,,2013-01-08 19:22:00,
2013-01-08 12:32:00,38.0,18.0,-100.00,South,185,12.0,14.0,44,-99.99,,,0.00,,2013-01-08 19:32:00,
2013-01-08 12:42:00,38.0,18.0,-100.00,South,185,12.0,14.0,44,-99.99,,,0.00,,2013-01-08 19:42:00,
2013-01-08 12:53:00,38.0,18.0,-100.00,SSW,195,12.0,15.0,43,-99.99,,,0.00,,2013-01-08 19:53:00,
2013-01-08 13:02:00,38.0,18.0,-100.00,SSW,195,12.0,15.0,43,-99.99,,,0.00,,2013-01-08 20:02:00,
2013-01-08 13:12:00,38.0,18.0,-100.00,SSW,200,7.0,11.0,43,-99.99,,,0.00,,2013-01-08 20:12:00,
2013-01-08 13:22:00,38.0,18.0,-100.00,SSW,200,7.0,11.0,43,-99.99,,,0.00,,2013-01-08 20:22:00,
2013-01-08 13:33:00,38.0,18.0,-100.00,SSW,205,12.0,17.0,43,-99.99,,,0.00,,2013-01-08 20:33:00,
2013-01-08 13:43:00,38.0,18.0,-100.00,SSW,205,12.0,17.0,43,-99.99,,,0.00,,2013-01-08 20:43:00,
2013-01-08 13:53:00,38.0,18.0,-100.00,South,180,14.0,17.0,43,-99.99,,,0.00,,2013-01-08 20:53:00,
2013-01-08 14:02:00,38.0,18.0,-100.00,South,180,14.0,17.0,43,-99.99,,,0.00,,2013-01-08 21:02:00,
2013-01-08 14:12:00,39.0,18.0,-100.00,South,190,19.0,22.0,42,-99.99,,,0.00,,2013-01-08 21:12:00,
2013-01-08 14:22:00,39.0,18.0,-100.00,South,190,19.0,22.0,42,-99.99,,,0.00,,2013-01-08 21:22:00,
2013-01-08 14:33:00,39.0,18.0,-100.00,South,170,11.0,19.0,42,-99.99,,,0.00,,2013-01-08 21:33:00,
2013-01-08 14:42:00,39.0,18.0,-100.00,South,170,11.0,19.0,42,-99.99,,,0.00,,2013-01-08 21:42:00,
2013-01-08 14:53:00,39.0,18.0,-100.00,South,190,9.0,11.0,42,-99.99,,,0.00,,2013-01-08 21:53:00,
2013-01-08 15:02:00,39.0,18.0,-100.00,South,190,9.0,11.0,42,-99.99,,,0.00,,2013-01-08 22:02:00,
2013-01-08 15:12:00,39.0,18.0,-100.00,South,190,15.0,18.0,42,-99.99,,,0.00,,2013-01-08 22:12:00,
2013-01-08 15:22:00,39.0,18.0,-100.00,South,190,15.0,18.0,42,-99.99,,,0.00,,2013-01-08 22:22:00,
2013-01-08 15:32:00,39.0,18.0,-100.00,South,180,12.0,16.0,42,-99.99,,,0.00,,2013-01-08 22:32:00,
2013-01-08 15:42:00,39.0,18.0,-100.00,South,180,12.0,16.0,42,-99.99,,,0.00,,2013-01-08 22:42:00,
2013-01-08 15:52:00,39.0,18.0,-100.00,SSW,200,5.0,12.0,42,-99.99,,,0.00,,2013-01-08 22:52:00,
2013-01-08 16:02:00,39.0,18.0,-100.00,SSW,200,5.0,12.0,42,-99.99,,,0.00,,2013-01-08 23:02:00,
2013-01-08 16:12:00,39.0,19.0,-100.00,South,185,12.0,15.0,45,-99.99,,,0.00,,2013-01-08 23:12:00,
2013-01-08 16:22:00,39.0,19.0,-100.00,South,185,12.0,15.0,45,-99.99,,,0.00,,2013-01-08 23:22:00,
2013-01-08 16:32:00,38.0,19.0,-100.00,SSW,195,12.0,13.0,45,-99.99,,,0.00,,2013-01-08 23:32:00,
2013-01-08 16:42:00,38.0,19.0,-100.00,SSW,195,12.0,13.0,45,-99.99,,,0.00,,2013-01-08 23:42:00,
2013-01-08 16:52:00,38.0,19.0,-100.00,SSW,200,12.0,15.0,46,-99.99,,,0.00,,2013-01-08 23:52:00,
2013-01-08 17:02:00,38.0,19.0,-100.00,SSW,200,12.0,15.0,46,-99.99,,,0.00,,2013-01-09 00:02:00,
2013-01-08 17:12:00,38.0,20.0,-100.00,SSW,205,9.0,9.0,48,-99.99,,,0.00,,2013-01-09 00:12:00,
2013-01-08 17:22:00,38.0,20.0,-100.00,SSW,205,9.0,9.0,48,-99.99,,,0.00,,2013-01-09 00:22:00,
2013-01-08 17:32:00,37.0,20.0,-100.00,SSW,200,6.0,8.0,48,-99.99,,,0.00,,2013-01-09 00:32:00,
2013-01-08 17:42:00,37.0,20.0,-100.00,SSW,200,6.0,8.0,48,-99.99,,,0.00,,2013-01-09 00:42:00,
2013-01-08 17:52:00,37.0,20.0,-100.00,South,185,6.0,7.0,50,-99.99,,,0.00,,2013-01-09 00:52:00,
2013-01-08 18:02:00,37.0,20.0,-100.00,South,185,6.0,7.0,50,-99.99,,,0.00,,2013-01-09 01:02:00,
2013-01-08 18:12:00,36.0,20.0,-100.00,South,190,3.0,6.0,52,-99.99,,,0.00,,2013-01-09 01:12:00,
2013-01-08 18:22:00,36.0,20.0,-100.00,South,190,3.0,6.0,52,-99.99,,,0.00,,2013-01-09 01:22:00,
2013-01-08 18:32:00,36.0,20.0,-100.00,SSW,210,7.0,9.0,52,-99.99,,,0.00,,2013-01-09 01:32:00,
2013-01-08 18:42:00,36.0,20.0,-100.00,SSW,210,7.0,9.0,52,-99.99,,,0.00,,2013-01-09 01:42:00,
2013-01-08 18:52:00,36.0,21.0,-100.00,SSW,195,5.0,7.0,52,-99.99,,,0.00,,2013-01-09 01:52:00,
2013-01-08 19:02:00,36.0,21.0,-100.00,SSW,195,5.0,7.0,52,-99.99,,,0.00,,2013-01-09 02:02:00,
2013-01-08 19:12:00,36.0,20.0,-100.00,SSW,200,6.0,8.0,53,-99.99,,,0.00,,2013-01-09 02:12:00,
2013-01-08 19:22:00,36.0,20.0,-100.00,SSW,200,6.0,8.0,53,-99.99,,,0.00,,2013-01-09 02:22:00,
2013-01-08 19:32:00,36.0,21.0,-100.00,South,180,7.0,9.0,54,-99.99,,,0.00,,2013-01-09 02:32:00,
2013-01-08 19:42:00,36.0,21.0,-100.00,South,180,7.0,9.0,54,-99.99,,,0.00,,2013-01-09 02:42:00,
2013-01-08 19:52:00,35.0,20.0,-100.00,South,185,6.0,7.0,54,-99.99,,,0.00,,2013-01-09 02:52:00,
2013-01-08 20:02:00,35.0,20.0,-100.00,South,185,6.0,7.0,54,-99.99,,,0.00,,2013-01-09 03:02:00,
2013-01-08 20:12:00,36.0,21.0,-100.00,South,185,9.0,12.0,55,-99.99,,,0.00,,2013-01-09 03:12:00,
2013-01-08 20:22:00,36.0,21.0,-100.00,South,185,9.0,12.0,55,-99.99,,,0.00,,2013-01-09 03:22:00,
2013-01-08 20:33:00,36.0,22.0,-100.00,South,185,9.0,12.0,56,-99.99,,,0.00,,2013-01-09 03:33:00,
2013-01-08 20:42:00,36.0,22.0,-100.00,South,185,9.0,12.0,56,-99.99,,,0.00,,2013-01-09 03:42:00,
2013-01-08 20:52:00,36.0,22.0,-100.00,South,170,7.0,8.0,56,-99.99,,,0.00,,2013-01-09 03:52:00,
2013-01-08 21:02:00,36.0,22.0,-100.00,South,170,7.0,8.0,56,-99.99,,,0.00,,2013-01-09 04:02:00,
2013-01-08 21:12:00,37.0,23.0,-100.00,South,185,6.0,8.0,57,-99.99,,,0.00,,2013-01-09 04:12:00,
2013-01-08 21:22:00,37.0,23.0,-100.00,South,185,6.0,8.0,57,-99.99,,,0.00,,2013-01-09 04:22:00,
2013-01-08 21:32:00,38.0,24.0,-100.00,South,190,11.0,13.0,56,-99.99,,,0.00,,2013-01-09 04:32:00,
2013-01-08 21:42:00,38.0,24.0,-100.00,South,190,11.0,13.0,56,-99.99,,,0.00,,2013-01-09 04:42:00,
2013-01-08 21:52:00,40.0,25.0,-100.00,South,190,8.0,11.0,55,-99.99,,,0.00,,2013-01-09 04:52:00,
2013-01-08 22:03:00,40.0,25.0,-100.00,South,190,8.0,11.0,55,-99.99,,,0.00,,2013-01-09 05:03:00,
2013-01-08 22:12:00,41.0,25.0,-100.00,SSW,195,8.0,11.0,52,-99.99,,,-99.99,,2013-01-09 05:12:00,
2013-01-08 22:22:00,41.0,25.0,-100.00,SSW,195,8.0,11.0,52,-99.99,,,-99.99,,2013-01-09 05:22:00,
2013-01-08 22:33:00,41.0,25.0,-100.00,SSW,195,8.0,11.0,52,-99.99,,,-99.99,,2013-01-09 05:33:00,
2013-01-08 22:42:00,41.0,25.0,-100.00,SSW,195,8.0,11.0,52,-99.99,,,-99.99,,2013-01-09 05:42:00,
2013-01-08 22:52:00,43.0,26.0,-100.00,South,180,13.0,20.0,51,-99.99,,,-99.99,,2013-01-09 05:52:00,
2013-01-08 23:02:00,43.0,26.0,-100.00,South,180,13.0,20.0,51,-99.99,,,-99.99,,2013-01-09 06:02:00,
2013-01-08 23:12:00,44.0,27.0,-100.00,SSW,195,20.0,25.0,51,-99.99,,,-99.99,,2013-01-09 06:12:00,
2013-01-08 23:22:00,44.0,27.0,-100.00,SSW,195,20.0,25.0,51,-99.99,,,-99.99,,2013-01-09 06:22:00,
2013-01-08 23:32:00,44.0,27.0,-100.00,SSW,195,13.0,19.0,51,-99.99,,,-99.99,,2013-01-09 06:32:00,
2013-01-08 23:52:00,45.0,27.0,-100.00,South,185,13.0,17.0,50,-99.99,,,-99.99,,2013-01-09 06:52:00,